Time;durP1;ratioP1;P1;durP2;ratioP2;P2;SDS_P1;SDS_P2;PMS_P1;PMS_P2;Temp;Humidity;BMP_temperature;BMP_pressure;BME280_temperature;BME280_humidity;BME280_pressure;Samples;Min_cycle;Max_cycle;Signal;HPM_P1;HPM_P2
2024/01/21 00:04:22;;;;;;;10.1;6;;;;;;;0.53;73.31;100016.66666667;;;;
2024/01/21 00:14:22;;;;;;;10.1;6;;;;;;;0.44;74.49;100018.33333333;;;;
2024/01/21 00:25:22;;;;;;;10.1;6;;;;;;;0.2;78.14;100036.66666667;;;;
2024/01/21 00:35:22;;;;;;;12.6;6.9;;;;;;;0.12;80.1;100048.33333333;;;;
2024/01/21 00:45:22;;;;;;;12.6;6.9;;;;;;;-0.11;82.06;100041.66666667;;;;
2024/01/21 00:55:22;;;;;;;12.6;6.9;;;;;;;-0.08;82.39;100068.33333333;;;;
2024/01/21 01:06:22;;;;;;;17.4;8.6;;;;;;;-0.01;82.29;100073.33333333;;;;
2024/01/21 01:16:22;;;;;;;17.4;8.6;;;;;;;0.03;82.16;100088.33333333;;;;
2024/01/21 01:27:24;;;;;;;17.4;8.6;;;;;;;0.12;81.71;100085;;;;
2024/01/21 01:38:22;;;;;;;15.7;6.9;;;;;;;0.09;80.8;100086.66666667;;;;
2024/01/21 01:48:22;;;;;;;15.7;6.9;;;;;;;0.18;79.73;100098.33333333;;;;
2024/01/21 01:59:22;;;;;;;15.7;6.9;;;;;;;0.26;79.03;100080;;;;
2024/01/21 02:09:22;;;;;;;13.1;6.7;;;;;;;0.42;78.07;100096.66666667;;;;
2024/01/21 02:19:22;;;;;;;13.1;6.7;;;;;;;0.49;76.69;100106.66666667;;;;
2024/01/21 02:30:22;;;;;;;13.1;6.7;;;;;;;0.53;76.2;100118.33333333;;;;
2024/01/21 02:40:22;;;;;;;12.2;6.9;;;;;;;0.63;75.78;100118.33333333;;;;
2024/01/21 02:50:22;;;;;;;12.2;6.9;;;;;;;0.73;75.2;100125;;;;
2024/01/21 03:01:22;;;;;;;12.2;6.9;;;;;;;0.75;75.06;100133.33333333;;;;
2024/01/21 03:12:22;;;;;;;13.6;6;;;;;;;0.79;74.72;100131.66666667;;;;
2024/01/21 03:22:22;;;;;;;13.6;6;;;;;;;0.79;74.8;100138.33333333;;;;
2024/01/21 03:32:22;;;;;;;12.6;6.3;;;;;;;0.89;74.51;100143.33333333;;;;
2024/01/21 03:43:22;;;;;;;12.6;6.3;;;;;;;0.91;74.51;100145;;;;
2024/01/21 03:53:22;;;;;;;12.6;6.3;;;;;;;0.85;74.43;100145;;;;
2024/01/21 04:03:22;;;;;;;11.6;6;;;;;;;0.85;74.67;100148.33333333;;;;
2024/01/21 04:14:22;;;;;;;11.6;6;;;;;;;0.83;74.97;100146.66666667;;;;
2024/01/21 04:25:22;;;;;;;11.6;6;;;;;;;0.85;74.86;100150;;;;
2024/01/21 04:35:22;;;;;;;14.6;6.9;;;;;;;0.85;74.72;100165;;;;
2024/01/21 04:46:22;;;;;;;14.6;6.9;;;;;;;0.73;75.06;100156.66666667;;;;
2024/01/21 04:57:22;;;;;;;14.6;6.9;;;;;;;0.72;75.48;100166.66666667;;;;
2024/01/21 05:07:22;;;;;;;13.6;7.3;;;;;;;0.71;75.02;100170;;;;
2024/01/21 05:17:22;;;;;;;13.6;7.3;;;;;;;0.8;75.42;100186.66666667;;;;
2024/01/21 05:27:22;;;;;;;13.6;7.3;;;;;;;0.79;75.82;100198.33333333;;;;
2024/01/21 05:38:22;;;;;;;15.9;9.2;;;;;;;0.88;75.51;100193.33333333;;;;
2024/01/21 05:48:22;;;;;;;15.9;9.2;;;;;;;0.9;75.5;100200;;;;
2024/01/21 05:58:22;;;;;;;15.9;9.2;;;;;;;0.99;75.25;100201.66666667;;;;
2024/01/21 06:09:23;;;;;;;15.8;6.8;;;;;;;1.04;75.36;100200;;;;
2024/01/21 06:20:22;;;;;;;15.8;6.8;;;;;;;1.12;75.12;100193.33333333;;;;
2024/01/21 06:31:22;;;;;;;10;5.6;;;;;;;1.2;75.28;100188.33333333;;;;
2024/01/21 06:41:22;;;;;;;10;5.6;;;;;;;1.32;75.01;100188.33333333;;;;
2024/01/21 06:51:31;;;;;;;10;5.6;;;;;;;1.25;74.51;100185;;;;
2024/01/21 07:02:22;;;;;;;10.6;6.4;;;;;;;1.39;74.97;100190;;;;
2024/01/21 07:12:22;;;;;;;10.6;6.4;;;;;;;1.52;74.75;100200;;;;
2024/01/21 07:23:22;;;;;;;10.6;6.4;;;;;;;1.66;75.06;100208.33333333;;;;
2024/01/21 07:34:22;;;;;;;11.3;6.9;;;;;;;1.91;74.4;100208.33333333;;;;
2024/01/21 07:44:22;;;;;;;11.3;6.9;;;;;;;2.15;74.18;100198.33333333;;;;
2024/01/21 07:55:22;;;;;;;11.3;6.9;;;;;;;2.17;73.56;100198.33333333;;;;
2024/01/21 08:05:22;;;;;;;17.1;10.1;;;;;;;2.22;74.68;100206.66666667;;;;
2024/01/21 08:16:22;;;;;;;17.1;10.1;;;;;;;2.6;72.81;100216.66666667;;;;
2024/01/21 08:27:22;;;;;;;17.1;10.1;;;;;;;2.9;71.45;100218.33333333;;;;
2024/01/21 08:38:22;;;;;;;20.6;11.2;;;;;;;2.85;70.02;100218.33333333;;;;
2024/01/21 08:49:22;;;;;;;20.6;11.2;;;;;;;3.32;69.8;100228.33333333;;;;
2024/01/21 08:59:22;;;;;;;20.6;11.2;;;;;;;3.59;68.57;100240;;;;
2024/01/21 09:09:23;;;;;;;18.3;11.4;;;;;;;3.5;67.78;100250;;;;
2024/01/21 09:20:23;;;;;;;18.3;11.4;;;;;;;3.76;67.8;100253.33333333;;;;
2024/01/21 09:30:22;;;;;;;18.3;11.4;;;;;;;3.94;66.8;100246.66666667;;;;
2024/01/21 09:40:22;;;;;;;17.6;9.5;;;;;;;4.03;67.1;100241.66666667;;;;
2024/01/21 09:51:22;;;;;;;17.6;9.5;;;;;;;4.44;67.1;100230;;;;
2024/01/21 10:01:22;;;;;;;18.3;10.9;;;;;;;4.29;65.66;100228.33333333;;;;
2024/01/21 10:11:22;;;;;;;18.3;10.9;;;;;;;4.64;66.13;100218.33333333;;;;
2024/01/21 10:21:22;;;;;;;18.3;10.9;;;;;;;5.02;63.71;100218.33333333;;;;
2024/01/21 10:32:23;;;;;;;17.1;10.3;;;;;;;5.22;63.36;100215;;;;
2024/01/21 10:43:22;;;;;;;17.1;10.3;;;;;;;5.14;64.3;100215;;;;
2024/01/21 10:53:23;;;;;;;17.1;10.3;;;;;;;5.1;63.9;100218.33333333;;;;
2024/01/21 11:03:23;;;;;;;15.9;9.4;;;;;;;5.17;62.85;100203.33333333;;;;
2024/01/21 11:14:22;;;;;;;15.9;9.4;;;;;;;4.83;63.59;100191.66666667;;;;
2024/01/21 11:24:22;;;;;;;15.9;9.4;;;;;;;5.09;63.06;100170;;;;
2024/01/21 11:35:22;;;;;;;15.3;9.4;;;;;;;4.55;65.39;100145;;;;
2024/01/21 11:46:22;;;;;;;15.3;9.4;;;;;;;4.42;66.07;100130;;;;
2024/01/21 11:57:22;;;;;;;15.3;9.4;;;;;;;4.86;65.58;100131.66666667;;;;
2024/01/21 12:07:24;;;;;;;17.4;10.3;;;;;;;4.78;65.95;100128.33333333;;;;
2024/01/21 12:17:23;;;;;;;17.4;10.3;;;;;;;5.14;64.12;100106.66666667;;;;
2024/01/21 12:27:23;;;;;;;17.4;10.3;;;;;;;4.98;64.95;100096.66666667;;;;
2024/01/21 12:38:23;;;;;;;16.1;9.5;;;;;;;4.98;64.79;100088.33333333;;;;
2024/01/21 12:48:22;;;;;;;16.1;9.5;;;;;;;4.94;65.48;100068.33333333;;;;
2024/01/21 12:58:22;;;;;;;16.1;9.5;;;;;;;4.86;65.64;100068.33333333;;;;
2024/01/21 13:08:23;;;;;;;16.8;11.2;;;;;;;4.92;65.66;100056.66666667;;;;
2024/01/21 13:19:22;;;;;;;16.8;11.2;;;;;;;4.8;66.12;100076.66666667;;;;
2024/01/21 13:30:45;;;;;;;16.8;11.2;;;;;;;4.8;66.32;100075;;;;
2024/01/21 13:41:22;;;;;;;22.7;14.6;;;;;;;4.5;67.62;100071.66666667;;;;
2024/01/21 13:52:23;;;;;;;22.7;14.6;;;;;;;4.55;67.89;100058.33333333;;;;
2024/01/21 14:02:22;;;;;;;19.5;12.3;;;;;;;4.24;68.81;100046.66666667;;;;
2024/01/21 14:12:22;;;;;;;19.5;12.3;;;;;;;4.06;69.76;100048.33333333;;;;
2024/01/21 14:22:23;;;;;;;19.5;12.3;;;;;;;3.85;70.32;100053.33333333;;;;
2024/01/21 14:33:23;;;;;;;20.5;12.8;;;;;;;3.57;71.28;100065;;;;
2024/01/21 14:44:23;;;;;;;20.5;12.8;;;;;;;3.41;70.87;100061.66666667;;;;
2024/01/21 14:55:24;;;;;;;20.5;12.8;;;;;;;3.07;71.52;100053.33333333;;;;
2024/01/21 15:05:23;;;;;;;21;11.5;;;;;;;2.76;71.78;100063.33333333;;;;
2024/01/21 15:16:22;;;;;;;21;11.5;;;;;;;2.3;73.4;100078.33333333;;;;
2024/01/21 15:26:24;;;;;;;21;11.5;;;;;;;2.07;74.35;100101.66666667;;;;
2024/01/21 15:36:24;;;;;;;24.6;14.9;;;;;;;1.79;74.41;100096.66666667;;;;
2024/01/21 15:47:23;;;;;;;24.6;14.9;;;;;;;1.49;76.44;100078.33333333;;;;
2024/01/21 15:57:23;;;;;;;24.6;14.9;;;;;;;1.3;77.35;100073.33333333;;;;
2024/01/21 16:08:23;;;;;;;21.1;12.4;;;;;;;1.1;76.73;100078.33333333;;;;
2024/01/21 16:18:23;;;;;;;21.1;12.4;;;;;;;0.84;77.59;100068.33333333;;;;
2024/01/21 16:29:24;;;;;;;21.1;12.4;;;;;;;0.51;78.03;100080;;;;
2024/01/21 16:39:23;;;;;;;26.7;15.1;;;;;;;0.28;77.95;100061.66666667;;;;
2024/01/21 16:50:22;;;;;;;26.7;15.1;;;;;;;0.09;79.17;100036.66666667;;;;
2024/01/21 17:00:23;;;;;;;31;16.2;;;;;;;-0.11;79.95;100020;;;;
2024/01/21 17:11:23;;;;;;;31;16.2;;;;;;;-0.26;80.66;100015;;;;
2024/01/21 17:21:23;;;;;;;31;16.2;;;;;;;-0.36;81.73;100008.33333333;;;;
2024/01/21 17:31:23;;;;;;;30.6;17.9;;;;;;;-0.51;81.96;99993.333333333;;;;
2024/01/21 17:42:23;;;;;;;30.6;17.9;;;;;;;-0.65;82.75;100016.66666667;;;;
2024/01/21 17:52:23;;;;;;;30.6;17.9;;;;;;;-0.59;82.57;100008.33333333;;;;
2024/01/21 18:02:23;;;;;;;38.1;23;;;;;;;-0.61;83.71;100015;;;;
2024/01/21 18:13:23;;;;;;;38.1;23;;;;;;;-0.5;83.98;100030;;;;
2024/01/21 18:24:23;;;;;;;38.1;23;;;;;;;-0.33;84.43;100001.66666667;;;;
2024/01/21 18:34:27;;;;;;;49.1;26.5;;;;;;;-0.15;84.86;99996.666666667;;;;
2024/01/21 18:45:23;;;;;;;49.1;26.5;;;;;;;0.06;84.37;99965;;;;
2024/01/21 18:56:23;;;;;;;49.1;26.5;;;;;;;0.12;83.97;99971.666666667;;;;
2024/01/21 19:07:23;;;;;;;184.8;101;;;;;;;0.02;83.88;99958.333333333;;;;
2024/01/21 19:17:23;;;;;;;184.8;101;;;;;;;-0.1;83.87;99955;;;;
2024/01/21 19:27:23;;;;;;;184.8;101;;;;;;;-0.09;83.84;99928.333333333;;;;
2024/01/21 19:38:23;;;;;;;56.6;29.6;;;;;;;0;83.47;99913.333333333;;;;
2024/01/21 19:49:23;;;;;;;56.6;29.6;;;;;;;0;83.67;99908.333333333;;;;
2024/01/21 20:00:23;;;;;;;61.1;33.9;;;;;;;0.08;83.37;99915;;;;
2024/01/21 20:10:23;;;;;;;61.1;33.9;;;;;;;0.03;83.56;99886.666666667;;;;
2024/01/21 20:21:23;;;;;;;61.1;33.9;;;;;;;-0.13;83.85;99868.333333333;;;;
2024/01/21 20:32:23;;;;;;;49.4;28.1;;;;;;;0.02;83.2;99866.666666667;;;;
2024/01/21 20:43:23;;;;;;;49.4;28.1;;;;;;;-0.23;82.73;99885;;;;
2024/01/21 20:54:23;;;;;;;49.4;28.1;;;;;;;-0.44;82.58;99865;;;;
2024/01/21 21:05:27;;;;;;;62.5;37;;;;;;;-0.78;82.44;99890;;;;
2024/01/21 21:15:23;;;;;;;62.5;37;;;;;;;-1.18;82.76;99875;;;;
2024/01/21 21:26:23;;;;;;;62.5;37;;;;;;;-1.46;82.98;99870;;;;
2024/01/21 21:36:23;;;;;;;61.5;34.8;;;;;;;-1.64;84.75;99871.666666667;;;;
2024/01/21 21:47:23;;;;;;;61.5;34.8;;;;;;;-1.84;85.17;99868.333333333;;;;
2024/01/21 21:57:23;;;;;;;61.5;34.8;;;;;;;-2.11;84.98;99861.666666667;;;;
2024/01/21 22:08:23;;;;;;;53.3;29.3;;;;;;;-2.11;85.53;99868.333333333;;;;
2024/01/21 22:19:23;;;;;;;53.3;29.3;;;;;;;-2.24;85.49;99868.333333333;;;;
2024/01/21 22:29:23;;;;;;;36.4;24.7;;;;;;;-2.26;84.63;99860;;;;
2024/01/21 22:39:23;;;;;;;36.4;24.7;;;;;;;-2.24;81.86;99840;;;;
2024/01/21 22:50:23;;;;;;;36.4;24.7;;;;;;;-1.94;78.85;99838.333333333;;;;
2024/01/21 23:01:23;;;;;;;20.6;9.9;;;;;;;-2.1;78.7;99828.333333333;;;;
2024/01/21 23:11:23;;;;;;;20.6;9.9;;;;;;;-2.18;77.62;99818.333333333;;;;
2024/01/21 23:21:23;;;;;;;20.6;9.9;;;;;;;-2.19;76.16;99816.666666667;;;;
2024/01/21 23:32:24;;;;;;;14.2;7.3;;;;;;;-2.29;76.62;99820;;;;
2024/01/21 23:43:23;;;;;;;14.2;7.3;;;;;;;-2.52;80.43;99806.666666667;;;;
2024/01/21 23:53:23;;;;;;;14.2;7.3;;;;;;;-2.56;77.85;99801.666666667;;;;
